Time;durP1;ratioP1;P1;durP2;ratioP2;P2;SDS_P1;SDS_P2;PMS_P1;PMS_P2;Temp;Humidity;BMP_temperature;BMP_pressure;BME280_temperature;BME280_humidity;BME280_pressure;Samples;Min_cycle;Max_cycle;Signal;HPM_P1;HPM_P2
2023/10/16 00:01:41;;;;;;;11.02;4.57;;;;;;;;;;8331405;28;20481;-92
2023/10/16 00:05:49;;;;;;;12.00;4.30;;;;;;;;;;8331302;28;20120;-91
2023/10/16 00:09:53;;;;;;;10.10;4.30;;;;;;;;;;8330543;28;20094;-93
2023/10/16 00:13:57;;;;;;;8.65;4.63;;;;;;;;;;8300710;28;20042;-93
2023/10/16 00:18:09;;;;;;;9.73;4.53;;;;;;;;;;8307686;28;20165;-93
2023/10/16 00:22:16;;;;;;;10.57;4.05;;;;;;;;;;8312268;28;20132;-93
2023/10/16 00:26:21;;;;;;;11.55;4.32;;;;;;;;;;8310350;28;20050;-89
2023/10/16 00:30:24;;;;;;;11.05;4.05;;;;;;;;;;8319321;28;20510;-92
2023/10/16 00:34:30;;;;;;;13.18;3.97;;;;;;;;;;8318799;28;20077;-88
2023/10/16 00:38:37;;;;;;;7.65;3.30;;;;;;;;;;8309207;28;20116;-88
2023/10/16 00:42:43;;;;;;;12.25;3.67;;;;;;;;;;8315360;28;20053;-92
2023/10/16 00:46:48;;;;;;;10.40;3.50;;;;;;;;;;8324006;28;20056;-92
2023/10/16 00:50:53;;;;;;;10.75;3.92;;;;;;;;;;8311277;28;20041;-92
2023/10/16 00:54:58;;;;;;;8.38;3.30;;;;;;;;;;8318341;28;20144;-88
2023/10/16 00:59:04;;;;;;;6.47;3.35;;;;;;;;;;8320380;28;20084;-89
2023/10/16 01:03:06;;;;;;;9.13;3.38;;;;;;;;;;8330472;28;20531;-93
2023/10/16 01:07:47;;;;;;;6.57;2.70;;;;;;;;;;8329610;28;20061;-88
2023/10/16 01:11:52;;;;;;;7.85;3.28;;;;;;;;;;8329131;28;20056;-90
2023/10/16 01:15:56;;;;;;;6.50;2.85;;;;;;;;;;8333091;28;20100;-87
2023/10/16 01:19:59;;;;;;;3.97;3.00;;;;;;;;;;8337103;28;20053;-88
2023/10/16 01:24:12;;;;;;;4.15;2.50;;;;;;;;;;8324962;28;20509;-87
2023/10/16 01:28:15;;;;;;;7.90;2.90;;;;;;;;;;8330022;28;20069;-90
2023/10/16 01:32:20;;;;;;;4.95;2.72;;;;;;;;;;8330016;28;20041;-92
2023/10/16 01:36:23;;;;;;;6.35;3.20;;;;;;;;;;8329525;28;20041;-92
2023/10/16 01:40:28;;;;;;;8.23;3.03;;;;;;;;;;8329342;28;20055;-91
2023/10/16 01:44:31;;;;;;;10.82;4.07;;;;;;;;;;8329316;28;20051;-89
2023/10/16 01:48:34;;;;;;;7.18;3.58;;;;;;;;;;8329541;28;20041;-93
2023/10/16 01:52:37;;;;;;;6.88;3.28;;;;;;;;;;8329888;28;20053;-93
2023/10/16 01:56:42;;;;;;;5.72;3.00;;;;;;;;;;8329584;28;20095;-91
2023/10/16 02:00:45;;;;;;;7.15;3.10;;;;;;;;;;8330514;28;20049;-92
2023/10/16 02:04:48;;;;;;;9.15;3.80;;;;;;;;;;8334897;28;20124;-90
2023/10/16 02:08:51;;;;;;;5.10;3.60;;;;;;;;;;8334868;28;20052;-87
2023/10/16 02:12:55;;;;;;;8.93;3.55;;;;;;;;;;8334696;28;20049;-90
2023/10/16 02:16:58;;;;;;;5.88;3.40;;;;;;;;;;8335167;28;20049;-92
2023/10/16 02:21:01;;;;;;;9.50;3.67;;;;;;;;;;8334578;28;20045;-87
2023/10/16 02:25:08;;;;;;;9.32;3.60;;;;;;;;;;8332946;28;20037;-92
2023/10/16 02:29:15;;;;;;;8.10;2.95;;;;;;;;;;8323644;28;20489;-90
2023/10/16 02:33:23;;;;;;;6.00;3.38;;;;;;;;;;8337669;28;20056;-93
2023/10/16 02:37:27;;;;;;;6.70;3.45;;;;;;;;;;8335090;28;20046;-92
2023/10/16 02:41:31;;;;;;;10.18;4.07;;;;;;;;;;8334228;28;20054;-91
2023/10/16 02:45:37;;;;;;;5.72;3.80;;;;;;;;;;8334759;28;20048;-91
2023/10/16 02:49:47;;;;;;;6.65;3.83;;;;;;;;;;8334409;28;20052;-88
2023/10/16 02:53:51;;;;;;;9.70;3.35;;;;;;;;;;8335244;28;20411;-90
2023/10/16 02:57:53;;;;;;;8.40;3.78;;;;;;;;;;8329175;28;20120;-94
2023/10/16 03:02:04;;;;;;;5.90;3.60;;;;;;;;;;8334246;28;20049;-92
2023/10/16 03:06:09;;;;;;;7.23;3.43;;;;;;;;;;8333004;28;20043;-93
2023/10/16 03:10:12;;;;;;;6.90;4.05;;;;;;;;;;8333577;28;20470;-91
2023/10/16 03:14:23;;;;;;;8.25;4.53;;;;;;;;;;8332616;28;20041;-94
2023/10/16 03:18:29;;;;;;;8.23;3.65;;;;;;;;;;8333421;28;20107;-94
2023/10/16 03:22:32;;;;;;;4.22;2.40;;;;;;;;;;8320607;28;20076;-92
2023/10/16 03:26:42;;;;;;;8.15;3.45;;;;;;;;;;8327863;28;20049;-94
2023/10/16 03:30:44;;;;;;;7.93;3.67;;;;;;;;;;8315291;28;20041;-93
2023/10/16 03:34:49;;;;;;;6.97;4.15;;;;;;;;;;8350726;28;20049;-91
2023/10/16 03:38:52;;;;;;;11.88;3.80;;;;;;;;;;8345382;28;20159;-94
2023/10/16 03:42:56;;;;;;;8.25;3.25;;;;;;;;;;8334700;28;20041;-89
2023/10/16 03:46:58;;;;;;;6.43;3.28;;;;;;;;;;8330756;28;20056;-92
2023/10/16 03:51:03;;;;;;;6.93;3.67;;;;;;;;;;8334294;28;20124;-88
2023/10/16 03:55:22;;;;;;;11.65;5.70;;;;;;;;;;8332949;28;20114;-93
2023/10/16 03:59:25;;;;;;;10.30;4.32;;;;;;;;;;8334460;28;20053;-88
2023/10/16 04:03:36;;;;;;;8.30;4.65;;;;;;;;;;8333423;28;20485;-93
2023/10/16 04:07:51;;;;;;;8.38;3.10;;;;;;;;;;8332425;28;20046;-93
2023/10/16 04:11:55;;;;;;;7.13;3.10;;;;;;;;;;8332316;28;20128;-96
2023/10/16 04:16:11;;;;;;;5.13;3.00;;;;;;;;;;8339579;28;20104;-88
2023/10/16 04:24:40;;;;;;;18.55;5.55;;;;;;;;;;8349207;28;20049;-87
2023/10/16 04:29:22;;;;;;;7.60;3.13;;;;;;;;;;8333895;28;20128;-93
2023/10/16 04:33:23;;;;;;;9.75;4.45;;;;;;;;;;8331920;28;20071;-93
2023/10/16 04:37:36;;;;;;;9.02;3.75;;;;;;;;;;8334657;28;20049;-89
2023/10/16 04:46:16;;;;;;;9.40;3.72;;;;;;;;;;8333954;28;19921;-93
2023/10/16 04:50:29;;;;;;;5.70;2.75;;;;;;;;;;8336776;28;20088;-95
2023/10/16 04:54:58;;;;;;;8.35;3.30;;;;;;;;;;8334367;28;20042;-94
2023/10/16 04:59:11;;;;;;;9.32;3.22;;;;;;;;;;8306374;28;20052;-87
2023/10/16 05:03:23;;;;;;;8.85;3.00;;;;;;;;;;8334646;28;20046;-90
2023/10/16 05:07:38;;;;;;;7.72;3.15;;;;;;;;;;8334077;28;20531;-90
2023/10/16 06:17:13;;;;;;;9.57;3.60;;;;;;;;;;8329127;28;20588;-87
2023/10/16 06:21:19;;;;;;;5.45;2.85;;;;;;;;;;8323990;28;20469;-89
2023/10/16 06:25:28;;;;;;;7.82;3.00;;;;;;;;;;8330630;28;20075;-90
2023/10/16 06:29:35;;;;;;;9.65;3.40;;;;;;;;;;8321225;28;20077;-91
2023/10/16 06:33:43;;;;;;;9.45;4.28;;;;;;;;;;8348924;28;20033;-88
2023/10/16 06:38:11;;;;;;;11.70;4.03;;;;;;;;;;8353011;28;20039;-95
2023/10/16 06:57:50;;;;;;;7.43;3.13;;;;;;;;;;8115707;29;20064;-92
2023/10/16 07:03:09;;;;;;;4.07;2.80;;;;;;;;;;8108856;29;20060;-87
2023/10/16 07:13:02;;;;;;;9.68;3.40;;;;;;;;;;7922685;30;20067;-96
2023/10/16 07:21:32;;;;;;;7.53;3.83;;;;;;;;;;7895208;30;20081;-90
2023/10/16 07:25:58;;;;;;;11.73;6.45;;;;;;;;;;7922604;29;20066;-93
2023/10/16 07:30:33;;;;;;;5.57;3.05;;;;;;;;;;8098649;29;20093;-92
2023/10/16 07:39:09;;;;;;;8.88;3.60;;;;;;;;;;8159051;29;20063;-95
2023/10/16 07:43:12;;;;;;;9.18;3.50;;;;;;;;;;8223375;28;20061;-95
2023/10/16 07:47:18;;;;;;;7.43;3.13;;;;;;;;;;8252107;28;20065;-95
2023/10/16 07:51:25;;;;;;;7.15;3.28;;;;;;;;;;8250765;28;20051;-96
2023/10/16 07:55:38;;;;;;;7.18;3.42;;;;;;;;;;8263505;28;20058;-96
2023/10/16 07:59:44;;;;;;;5.45;2.92;;;;;;;;;;8253656;28;20058;-87
2023/10/16 08:03:49;;;;;;;12.27;4.60;;;;;;;;;;8267405;28;20137;-87
2023/10/16 08:08:00;;;;;;;7.60;3.17;;;;;;;;;;8239842;28;20524;-86
2023/10/16 08:16:47;;;;;;;8.82;4.07;;;;;;;;;;8301799;28;20054;-92
2023/10/16 08:21:00;;;;;;;7.25;3.83;;;;;;;;;;8291644;28;20621;-88
2023/10/16 08:25:04;;;;;;;3.80;2.83;;;;;;;;;;8283653;28;20077;-88
2023/10/16 08:29:17;;;;;;;8.63;3.88;;;;;;;;;;8291186;28;20057;-87
2023/10/16 08:33:36;;;;;;;6.88;3.42;;;;;;;;;;8285949;28;20054;-86
2023/10/16 08:37:41;;;;;;;7.93;3.35;;;;;;;;;;8284745;28;20854;-86
2023/10/16 08:41:51;;;;;;;7.88;3.22;;;;;;;;;;8278968;28;20073;-93
2023/10/16 08:45:55;;;;;;;8.50;3.70;;;;;;;;;;8296096;28;20536;-87
2023/10/16 08:50:01;;;;;;;6.82;3.13;;;;;;;;;;8325109;28;20064;-92
2023/10/16 08:54:35;;;;;;;11.25;4.25;;;;;;;;;;8331234;28;20390;-95
2023/10/16 08:58:40;;;;;;;10.85;3.22;;;;;;;;;;8334816;28;20116;-96
2023/10/16 09:02:44;;;;;;;7.00;3.60;;;;;;;;;;8331031;28;20053;-88
2023/10/16 09:06:47;;;;;;;8.75;3.85;;;;;;;;;;8328075;28;20137;-91
2023/10/16 09:10:53;;;;;;;8.35;4.65;;;;;;;;;;8319596;28;20042;-91
2023/10/16 09:15:15;;;;;;;5.57;3.90;;;;;;;;;;8338749;28;20045;-94
2023/10/16 09:19:18;;;;;;;5.93;3.78;;;;;;;;;;8336933;28;20583;-90
2023/10/16 09:23:23;;;;;;;9.27;4.13;;;;;;;;;;8338130;28;20137;-89
2023/10/16 09:27:31;;;;;;;5.28;3.33;;;;;;;;;;8335815;28;20120;-89
2023/10/16 09:31:35;;;;;;;5.75;3.63;;;;;;;;;;8336000;28;20046;-93
2023/10/16 09:35:43;;;;;;;15.77;5.40;;;;;;;;;;8336667;28;20052;-95
2023/10/16 09:39:48;;;;;;;8.23;3.42;;;;;;;;;;8336601;28;20141;-93
2023/10/16 09:44:07;;;;;;;35.00;15.05;;;;;;;;;;8340567;28;20043;-94
2023/10/16 09:48:19;;;;;;;29.52;14.73;;;;;;;;;;8332669;28;20041;-89
2023/10/16 09:52:23;;;;;;;27.25;12.65;;;;;;;;;;8317350;28;20052;-94
2023/10/16 09:56:29;;;;;;;18.65;5.78;;;;;;;;;;8320768;28;20049;-94
2023/10/16 10:00:46;;;;;;;6.32;3.38;;;;;;;;;;8321324;28;20052;-89
2023/10/16 10:04:59;;;;;;;6.50;3.15;;;;;;;;;;8314646;28;20042;-91
2023/10/16 10:09:22;;;;;;;8.10;3.10;;;;;;;;;;8326583;28;20050;-91
2023/10/16 10:13:34;;;;;;;6.38;3.40;;;;;;;;;;8330370;28;20041;-89
2023/10/16 10:17:52;;;;;;;5.57;3.08;;;;;;;;;;8327403;28;20516;-90
2023/10/16 10:21:58;;;;;;;6.57;3.90;;;;;;;;;;8328988;28;20158;-88
2023/10/16 10:26:07;;;;;;;7.10;3.33;;;;;;;;;;8330534;28;20081;-95
2023/10/16 10:30:25;;;;;;;6.65;3.53;;;;;;;;;;8318721;28;20068;-94
2023/10/16 10:34:47;;;;;;;11.40;4.20;;;;;;;;;;8333800;28;20505;-95
2023/10/16 10:38:53;;;;;;;10.13;3.47;;;;;;;;;;8326206;28;20049;-94
2023/10/16 10:42:56;;;;;;;7.25;3.47;;;;;;;;;;8334320;28;20370;-95
2023/10/16 10:47:17;;;;;;;7.93;3.97;;;;;;;;;;8320010;28;20045;-94
2023/10/16 10:51:54;;;;;;;9.70;5.05;;;;;;;;;;8327511;28;20444;-93
2023/10/16 10:56:12;;;;;;;5.88;3.35;;;;;;;;;;8241795;28;20131;-96
2023/10/16 11:04:53;;;;;;;8.52;4.00;;;;;;;;;;8330247;28;20058;-90
2023/10/16 11:09:11;;;;;;;8.30;3.90;;;;;;;;;;8321697;28;20041;-92
2023/10/16 11:13:30;;;;;;;7.17;4.13;;;;;;;;;;8304318;28;20057;-91
2023/10/16 11:17:39;;;;;;;7.40;3.55;;;;;;;;;;8317200;28;20080;-94
2023/10/16 11:22:00;;;;;;;7.45;4.32;;;;;;;;;;8333333;28;20057;-94
2023/10/16 11:26:07;;;;;;;5.97;3.35;;;;;;;;;;8308746;28;20100;-95
2023/10/16 11:30:18;;;;;;;8.30;3.55;;;;;;;;;;8325503;28;20409;-96
2023/10/16 11:34:48;;;;;;;7.15;2.60;;;;;;;;;;8308290;28;20141;-93
2023/10/16 11:38:55;;;;;;;8.07;3.00;;;;;;;;;;8311634;28;20050;-96
2023/10/16 11:43:24;;;;;;;15.68;5.30;;;;;;;;;;8318350;28;20412;-92
2023/10/16 11:47:39;;;;;;;10.18;3.28;;;;;;;;;;8321661;28;20049;-94
2023/10/16 11:51:51;;;;;;;9.05;3.13;;;;;;;;;;8316910;28;20538;-93
2023/10/16 11:56:13;;;;;;;9.27;4.15;;;;;;;;;;8313601;28;20061;-90
2023/10/16 12:00:35;;;;;;;7.40;3.00;;;;;;;;;;8314618;28;20115;-96
2023/10/16 12:10:27;;;;;;;9.02;3.25;;;;;;;;;;8344903;28;20049;-89
2023/10/16 12:15:12;;;;;;;10.60;3.55;;;;;;;;;;8299423;28;20116;-92
2023/10/16 12:25:29;;;;;;;5.57;2.58;;;;;;;;;;8374304;23;20064;-89
2023/10/16 12:35:30;;;;;;;21.83;5.88;;;;;;;;;;8194276;28;20092;-89
2023/10/16 12:39:58;;;;;;;7.00;3.53;;;;;;;;;;8182543;29;20052;-88
2023/10/16 12:44:09;;;;;;;7.25;3.67;;;;;;;;;;8189229;29;20047;-89
2023/10/16 12:48:29;;;;;;;16.00;5.25;;;;;;;;;;8139125;29;20063;-89
2023/10/16 12:53:12;;;;;;;8.73;3.20;;;;;;;;;;8199054;28;20052;-96
2023/10/16 12:57:45;;;;;;;8.52;3.00;;;;;;;;;;8219216;28;20054;-91
2023/10/16 13:01:49;;;;;;;13.13;3.65;;;;;;;;;;8279146;28;20046;-90
2023/10/16 13:05:55;;;;;;;7.25;2.85;;;;;;;;;;8296258;28;20057;-91
2023/10/16 13:09:59;;;;;;;11.52;3.35;;;;;;;;;;8288499;28;20177;-91
2023/10/16 13:14:08;;;;;;;14.88;5.20;;;;;;;;;;8290119;28;20175;-90
2023/10/16 13:18:14;;;;;;;17.33;4.47;;;;;;;;;;8349027;22;20065;-92
2023/10/16 13:22:17;;;;;;;6.60;3.22;;;;;;;;;;8357586;28;20030;-91
2023/10/16 13:26:21;;;;;;;12.38;4.30;;;;;;;;;;8349643;28;20022;-89
2023/10/16 13:30:26;;;;;;;8.02;3.00;;;;;;;;;;8344044;28;20046;-89
2023/10/16 13:34:32;;;;;;;9.38;2.88;;;;;;;;;;8305458;28;20042;-96
2023/10/16 13:38:41;;;;;;;10.40;3.65;;;;;;;;;;8318476;28;20127;-93
2023/10/16 13:42:50;;;;;;;7.88;2.80;;;;;;;;;;8305602;28;20100;-91
2023/10/16 13:47:08;;;;;;;7.68;3.38;;;;;;;;;;8314391;28;20053;-92
2023/10/16 13:51:14;;;;;;;13.85;3.22;;;;;;;;;;8315200;28;20049;-95
2023/10/16 13:55:30;;;;;;;9.25;3.55;;;;;;;;;;8321590;28;20060;-96
2023/10/16 13:59:37;;;;;;;9.00;3.78;;;;;;;;;;8594925;22;20053;-93
2023/10/16 14:08:30;;;;;;;13.50;5.93;;;;;;;;;;8392156;22;20140;-94
2023/10/16 14:12:37;;;;;;;7.18;3.17;;;;;;;;;;8368657;28;20377;-94
2023/10/16 14:16:41;;;;;;;10.05;3.35;;;;;;;;;;8364636;28;20037;-95
2023/10/16 14:20:49;;;;;;;10.82;3.30;;;;;;;;;;8348272;28;20420;-95
2023/10/16 14:24:54;;;;;;;8.85;3.35;;;;;;;;;;8354314;28;20053;-96
2023/10/16 14:29:03;;;;;;;11.82;4.75;;;;;;;;;;8365605;28;20400;-94
2023/10/16 14:33:13;;;;;;;7.43;3.60;;;;;;;;;;8372239;28;20049;-93
2023/10/16 14:37:43;;;;;;;16.55;6.32;;;;;;;;;;8361018;28;20131;-95
2023/10/16 14:41:52;;;;;;;8.27;3.60;;;;;;;;;;8360552;28;20045;-94
2023/10/16 14:46:00;;;;;;;12.82;4.30;;;;;;;;;;8375045;28;20139;-94
2023/10/16 14:50:14;;;;;;;11.05;4.05;;;;;;;;;;8375477;28;20098;-94
2023/10/16 14:54:22;;;;;;;10.52;3.80;;;;;;;;;;8367830;28;20109;-94
2023/10/16 14:58:31;;;;;;;14.90;5.43;;;;;;;;;;8364864;28;20132;-96
2023/10/16 15:02:37;;;;;;;8.20;3.25;;;;;;;;;;8371067;28;20105;-93
2023/10/16 15:06:50;;;;;;;9.55;3.20;;;;;;;;;;8352227;28;20075;-96
2023/10/16 15:11:00;;;;;;;10.10;3.55;;;;;;;;;;8360478;28;20455;-96
2023/10/16 15:15:10;;;;;;;10.38;3.97;;;;;;;;;;8362232;28;20079;-96
2023/10/16 15:19:45;;;;;;;6.63;3.30;;;;;;;;;;8373182;28;20049;-95
2023/10/16 15:23:52;;;;;;;9.70;3.75;;;;;;;;;;8373988;28;20210;-94
2023/10/16 15:27:58;;;;;;;7.95;3.38;;;;;;;;;;8359765;28;20049;-96
2023/10/16 15:32:14;;;;;;;4.93;3.03;;;;;;;;;;8361476;28;20045;-93
2023/10/16 15:36:23;;;;;;;7.55;3.22;;;;;;;;;;8378844;28;20049;-94
2023/10/16 15:40:30;;;;;;;13.00;6.32;;;;;;;;;;8379239;28;20075;-95
2023/10/16 15:44:45;;;;;;;11.73;5.40;;;;;;;;;;8363630;28;20052;-95
2023/10/16 15:48:51;;;;;;;10.75;5.10;;;;;;;;;;8363539;28;20099;-94
2023/10/16 15:52:57;;;;;;;22.73;8.73;;;;;;;;;;8362160;28;20100;-95
2023/10/16 15:57:05;;;;;;;76.20;19.98;;;;;;;;;;8375298;28;20045;-96
2023/10/16 16:01:14;;;;;;;48.22;15.00;;;;;;;;;;8347426;28;20070;-95
2023/10/16 16:05:28;;;;;;;48.35;15.70;;;;;;;;;;8371218;28;20698;-95
2023/10/16 16:09:37;;;;;;;46.27;18.20;;;;;;;;;;8377175;28;20055;-93
2023/10/16 16:13:43;;;;;;;29.08;12.88;;;;;;;;;;8359454;28;20041;-93
2023/10/16 16:18:00;;;;;;;30.08;11.18;;;;;;;;;;8364513;28;20121;-95
2023/10/16 16:22:16;;;;;;;25.20;9.75;;;;;;;;;;8356198;28;20095;-95
2023/10/16 16:26:36;;;;;;;27.80;10.10;;;;;;;;;;8357877;28;20068;-95
2023/10/16 16:30:58;;;;;;;30.10;11.02;;;;;;;;;;8348873;28;20053;-95
2023/10/16 16:39:43;;;;;;;;;;;;;;;;;;;;;
2023/10/16 16:44:04;;;;;;;21.67;8.48;;;;;;;;;;8362165;28;20046;-94
2023/10/16 16:48:12;;;;;;;;;;;;;;;;;;8368390;28;20041;-96
2023/10/16 16:52:17;;;;;;;38.97;12.50;;;;;;;;;;8373215;28;19921;-95
2023/10/16 16:56:25;;;;;;;60.42;18.92;;;;;;;;;;8369971;28;20385;-95
2023/10/16 17:00:31;;;;;;;46.47;14.90;;;;;;;;;;8347644;28;20216;-95
2023/10/16 17:04:34;;;;;;;47.88;13.45;;;;;;;;;;8366802;28;20041;-95
2023/10/16 17:08:39;;;;;;;18.75;9.27;;;;;;;;;;8370381;28;20061;-94
2023/10/16 17:12:46;;;;;;;22.52;8.30;;;;;;;;;;8353832;28;20049;-92
2023/10/16 17:16:50;;;;;;;22.48;7.68;;;;;;;;;;8357968;28;20044;-95
2023/10/16 17:21:13;;;;;;;;;;;;;;;;;;;;;
2023/10/16 17:25:22;;;;;;;13.07;5.55;;;;;;;;;;8358528;28;20137;-94
2023/10/16 17:29:37;;;;;;;14.15;6.95;;;;;;;;;;8368106;28;20049;-95
2023/10/16 17:33:45;;;;;;;19.17;8.00;;;;;;;;;;8355536;28;20065;-94
2023/10/16 17:37:50;;;;;;;21.48;8.85;;;;;;;;;;8357334;28;20495;-93
2023/10/16 17:41:57;;;;;;;13.32;6.78;;;;;;;;;;8340134;28;20128;-92
2023/10/16 17:46:10;;;;;;;28.58;11.00;;;;;;;;;;8354240;28;20041;-93
2023/10/16 17:50:15;;;;;;;33.15;13.63;;;;;;;;;;8352281;28;20094;-93
2023/10/16 17:54:21;;;;;;;48.20;15.23;;;;;;;;;;8344114;28;20049;-94
2023/10/16 17:58:48;;;;;;;21.40;10.32;;;;;;;;;;8343333;28;20056;-92
2023/10/16 18:03:05;;;;;;;21.70;8.88;;;;;;;;;;8358674;28;20052;-94
2023/10/16 18:26:47;;;;;;;22.23;10.77;;;;;;;;;;8330722;28;20154;-95
2023/10/16 18:35:29;;;;;;;21.60;9.18;;;;;;;;;;8256289;28;20054;-92
2023/10/16 18:39:37;;;;;;;20.13;7.93;;;;;;;;;;8241966;28;20493;-94
2023/10/16 18:43:49;;;;;;;14.73;7.97;;;;;;;;;;8271644;28;20094;-95
2023/10/16 18:47:56;;;;;;;19.40;7.60;;;;;;;;;;8251326;28;20066;-95
2023/10/16 18:52:05;;;;;;;23.40;9.07;;;;;;;;;;8260949;28;20066;-93
2023/10/16 18:56:15;;;;;;;21.48;7.85;;;;;;;;;;8265297;28;20046;-93
2023/10/16 19:00:23;;;;;;;21.58;9.20;;;;;;;;;;8264915;28;20061;-93
2023/10/16 19:04:29;;;;;;;27.48;11.75;;;;;;;;;;8263289;28;20138;-93
2023/10/16 19:08:38;;;;;;;21.77;9.07;;;;;;;;;;8256806;28;20047;-95
2023/10/16 19:12:48;;;;;;;13.95;7.70;;;;;;;;;;8300836;28;20068;-95
2023/10/16 19:16:58;;;;;;;20.52;7.93;;;;;;;;;;8339164;28;20056;-95
2023/10/16 19:21:08;;;;;;;44.15;18.80;;;;;;;;;;8336494;28;20060;-95
2023/10/16 19:25:14;;;;;;;42.90;17.38;;;;;;;;;;8330949;28;20054;-94
2023/10/16 19:29:50;;;;;;;21.95;9.52;;;;;;;;;;8316116;28;20137;-93
2023/10/16 19:33:57;;;;;;;19.80;9.05;;;;;;;;;;8330565;28;20060;-94
2023/10/16 19:38:03;;;;;;;28.77;12.60;;;;;;;;;;8331219;28;20322;-93
2023/10/16 19:46:27;;;;;;;86.13;24.98;;;;;;;;;;8318539;28;20133;-94
2023/10/16 19:50:45;;;;;;;168.60;46.80;;;;;;;;;;8327565;28;20052;-95
2023/10/16 19:54:53;;;;;;;57.10;17.60;;;;;;;;;;8323618;28;20110;-92
2023/10/16 19:58:58;;;;;;;63.30;20.20;;;;;;;;;;8327801;28;20069;-95
2023/10/16 20:03:04;;;;;;;65.47;23.38;;;;;;;;;;8333767;28;20068;-93
2023/10/16 20:07:10;;;;;;;39.03;15.98;;;;;;;;;;8327879;28;20048;-94
2023/10/16 20:11:13;;;;;;;36.90;14.93;;;;;;;;;;8322272;28;20072;-95
2023/10/16 20:15:19;;;;;;;31.23;12.43;;;;;;;;;;8326971;28;20119;-93
2023/10/16 20:19:27;;;;;;;47.65;15.50;;;;;;;;;;8328127;28;20072;-93
2023/10/16 20:23:33;;;;;;;31.70;12.43;;;;;;;;;;8331521;28;20049;-94
2023/10/16 20:27:37;;;;;;;58.78;23.20;;;;;;;;;;8336542;28;20061;-93
2023/10/16 20:31:40;;;;;;;59.17;21.85;;;;;;;;;;8334049;28;20053;-95
2023/10/16 20:35:47;;;;;;;35.80;15.88;;;;;;;;;;8335325;28;20087;-94
2023/10/16 20:39:52;;;;;;;67.75;26.00;;;;;;;;;;8335245;28;20124;-93
2023/10/16 20:43:55;;;;;;;34.92;13.25;;;;;;;;;;8320965;28;20049;-93
2023/10/16 20:47:58;;;;;;;32.53;11.65;;;;;;;;;;8316461;28;20053;-92
2023/10/16 20:52:03;;;;;;;21.42;9.13;;;;;;;;;;8326290;28;20049;-94
2023/10/16 20:56:10;;;;;;;22.52;9.30;;;;;;;;;;8308247;28;20045;-93
2023/10/16 21:00:15;;;;;;;19.73;8.43;;;;;;;;;;8321341;28;20049;-96
2023/10/16 21:04:21;;;;;;;20.88;9.00;;;;;;;;;;8328470;28;20064;-93
2023/10/16 21:08:26;;;;;;;19.75;8.90;;;;;;;;;;8322931;28;20050;-94
2023/10/16 21:12:29;;;;;;;18.70;7.55;;;;;;;;;;8341392;28;20060;-93
2023/10/16 21:21:15;;;;;;;18.85;8.20;;;;;;;;;;8344927;28;20092;-94
2023/10/16 21:25:23;;;;;;;17.35;7.90;;;;;;;;;;8347813;28;20064;-94
2023/10/16 21:29:38;;;;;;;20.10;7.80;;;;;;;;;;8338583;28;20124;-94
2023/10/16 21:33:41;;;;;;;20.92;9.07;;;;;;;;;;8336940;28;20069;-94
2023/10/16 21:37:45;;;;;;;18.70;7.75;;;;;;;;;;8344678;28;20052;-94
2023/10/16 21:41:49;;;;;;;18.92;8.18;;;;;;;;;;8340294;28;20049;-92
2023/10/16 21:45:57;;;;;;;16.23;7.63;;;;;;;;;;8340311;28;20094;-93
2023/10/16 21:50:03;;;;;;;20.80;8.70;;;;;;;;;;8353219;28;20041;-94
2023/10/16 21:54:18;;;;;;;15.43;7.78;;;;;;;;;;8331177;28;20472;-94
2023/10/16 21:58:22;;;;;;;16.35;7.93;;;;;;;;;;8347513;28;20044;-93
2023/10/16 22:02:28;;;;;;;16.55;7.20;;;;;;;;;;8318743;28;20041;-95
2023/10/16 22:06:34;;;;;;;12.15;7.30;;;;;;;;;;8333895;28;20042;-93
2023/10/16 22:10:39;;;;;;;13.25;6.70;;;;;;;;;;8329179;28;20073;-94
2023/10/16 22:14:44;;;;;;;15.88;7.20;;;;;;;;;;8330589;28;20053;-95
2023/10/16 22:18:47;;;;;;;16.60;7.22;;;;;;;;;;8342517;28;20109;-93
2023/10/16 22:22:57;;;;;;;14.45;6.85;;;;;;;;;;8326400;28;20096;-93
2023/10/16 22:27:00;;;;;;;16.58;8.23;;;;;;;;;;8343580;28;20094;-93
2023/10/16 22:31:19;;;;;;;20.48;7.45;;;;;;;;;;8331610;28;20374;-93
2023/10/16 22:36:14;;;;;;;17.48;6.93;;;;;;;;;;8349522;23;20137;-94
2023/10/16 22:40:17;;;;;;;17.23;6.88;;;;;;;;;;8342303;28;20045;-93
2023/10/16 22:44:23;;;;;;;16.88;8.05;;;;;;;;;;8344255;28;20069;-92
2023/10/16 22:48:27;;;;;;;12.85;7.20;;;;;;;;;;8336759;28;20385;-94
2023/10/16 22:52:30;;;;;;;16.33;7.95;;;;;;;;;;8338006;28;20472;-93
2023/10/16 22:56:34;;;;;;;14.88;8.25;;;;;;;;;;8340889;28;20042;-93
2023/10/16 23:00:39;;;;;;;17.73;8.30;;;;;;;;;;8338501;28;20749;-93
2023/10/16 23:04:58;;;;;;;13.77;6.97;;;;;;;;;;8335724;28;20126;-92
2023/10/16 23:09:14;;;;;;;13.82;7.53;;;;;;;;;;8337375;28;20132;-95
2023/10/16 23:13:20;;;;;;;18.35;8.50;;;;;;;;;;8345697;28;20048;-93
2023/10/16 23:17:23;;;;;;;16.33;8.20;;;;;;;;;;8344006;28;20119;-95
2023/10/16 23:21:26;;;;;;;13.10;7.50;;;;;;;;;;8339342;28;20046;-94
2023/10/16 23:25:44;;;;;;;19.38;8.23;;;;;;;;;;8346338;28;20522;-95
2023/10/16 23:29:49;;;;;;;16.63;8.02;;;;;;;;;;8338915;28;20049;-92
2023/10/16 23:33:56;;;;;;;16.92;7.63;;;;;;;;;;8346524;28;20049;-92
2023/10/16 23:38:12;;;;;;;17.95;7.25;;;;;;;;;;8334334;28;20037;-94
2023/10/16 23:42:17;;;;;;;13.60;7.07;;;;;;;;;;8344021;28;20049;-92
2023/10/16 23:46:26;;;;;;;15.55;7.35;;;;;;;;;;8351969;28;20045;-94
2023/10/16 23:50:38;;;;;;;15.25;6.90;;;;;;;;;;8350202;28;20532;-92
2023/10/16 23:54:54;;;;;;;19.10;7.37;;;;;;;;;;8346840;28;20037;-93
